sensor_id;sensor_type;location;lat;lon;timestamp;pressure;altitude;pressure_sealevel;temperature;humidity
81509;BME280;70930;52.412;13.554;2023-06-22T00:02:39;101344.63;;;24.50;54.45
81509;BME280;70930;52.412;13.554;2023-06-22T00:12:59;101358.16;;;24.45;54.68
81509;BME280;70930;52.412;13.554;2023-06-22T00:23:20;101367.88;;;24.41;54.71
81509;BME280;70930;52.412;13.554;2023-06-22T00:33:40;101388.19;;;24.38;54.50
81509;BME280;70930;52.412;13.554;2023-06-22T00:44:00;101381.31;;;24.36;54.64
81509;BME280;70930;52.412;13.554;2023-06-22T00:54:21;101380.13;;;24.27;54.80
81509;BME280;70930;52.412;13.554;2023-06-22T01:04:45;101389.56;;;24.24;54.74
81509;BME280;70930;52.412;13.554;2023-06-22T01:15:10;101393.53;;;24.16;54.99
81509;BME280;70930;52.412;13.554;2023-06-22T01:25:57;101403.78;;;24.09;55.07
81509;BME280;70930;52.412;13.554;2023-06-22T01:36:19;101400.47;;;24.07;55.13
81509;BME280;70930;52.412;13.554;2023-06-22T01:46:40;101407.47;;;24.03;55.17
81509;BME280;70930;52.412;13.554;2023-06-22T01:57:01;101416.44;;;24.04;55.40
81509;BME280;70930;52.412;13.554;2023-06-22T02:07:23;101414.31;;;24.06;54.91
81509;BME280;70930;52.412;13.554;2023-06-22T02:17:44;101417.25;;;24.04;55.00
81509;BME280;70930;52.412;13.554;2023-06-22T02:28:05;101434.53;;;23.98;55.18
81509;BME280;70930;52.412;13.554;2023-06-22T02:38:25;101435.19;;;23.88;55.77
81509;BME280;70930;52.412;13.554;2023-06-22T02:48:46;101435.28;;;23.93;55.60
81509;BME280;70930;52.412;13.554;2023-06-22T02:59:06;101442.25;;;23.89;55.66
81509;BME280;70930;52.412;13.554;2023-06-22T03:09:27;101432.72;;;23.87;56.27
81509;BME280;70930;52.412;13.554;2023-06-22T03:19:48;101432.88;;;23.97;56.11
81509;BME280;70930;52.412;13.554;2023-06-22T03:30:10;101424.81;;;23.85;56.08
81509;BME280;70930;52.412;13.554;2023-06-22T03:40:31;101429.09;;;23.81;56.20
81509;BME280;70930;52.412;13.554;2023-06-22T03:50:51;101442.66;;;23.81;56.86
81509;BME280;70930;52.412;13.554;2023-06-22T04:01:12;101433.69;;;23.81;57.17
81509;BME280;70930;52.412;13.554;2023-06-22T04:11:32;101448.66;;;23.83;56.72
81509;BME280;70930;52.412;13.554;2023-06-22T04:21:52;101447.09;;;23.87;56.80
81509;BME280;70930;52.412;13.554;2023-06-22T04:32:12;101454.66;;;23.85;57.10
81509;BME280;70930;52.412;13.554;2023-06-22T04:42:34;101469.88;;;23.86;56.89
81509;BME280;70930;52.412;13.554;2023-06-22T04:52:56;101468.53;;;23.89;56.40
81509;BME280;70930;52.412;13.554;2023-06-22T05:03:17;101472.09;;;24.06;56.28
81509;BME280;70930;52.412;13.554;2023-06-22T05:13:38;101476.69;;;24.22;54.97
81509;BME280;70930;52.412;13.554;2023-06-22T05:23:59;101466.00;;;24.33;55.04
81509;BME280;70930;52.412;13.554;2023-06-22T05:34:23;101479.03;;;24.36;54.99
81509;BME280;70930;52.412;13.554;2023-06-22T05:44:43;101473.75;;;24.41;54.80
81509;BME280;70930;52.412;13.554;2023-06-22T05:55:03;101496.59;;;24.45;54.08
81509;BME280;70930;52.412;13.554;2023-06-22T06:05:24;101504.22;;;24.48;54.47
81509;BME280;70930;52.412;13.554;2023-06-22T06:15:45;101497.81;;;24.54;54.12
81509;BME280;70930;52.412;13.554;2023-06-22T06:26:06;101481.84;;;24.58;53.96
81509;BME280;70930;52.412;13.554;2023-06-22T06:36:27;101500.34;;;24.61;53.42
81509;BME280;70930;52.412;13.554;2023-06-22T06:46:47;101496.88;;;24.65;53.62
81509;BME280;70930;52.412;13.554;2023-06-22T06:57:07;101482.81;;;24.68;53.69
81509;BME280;70930;52.412;13.554;2023-06-22T07:07:31;101483.63;;;24.69;53.37
81509;BME280;70930;52.412;13.554;2023-06-22T07:17:51;101451.34;;;24.72;53.01
81509;BME280;70930;52.412;13.554;2023-06-22T07:28:12;101451.41;;;24.78;53.24
81509;BME280;70930;52.412;13.554;2023-06-22T07:38:32;101442.44;;;24.77;53.08
81509;BME280;70930;52.412;13.554;2023-06-22T09:54:30;101412.78;;;26.21;40.49
81509;BME280;70930;52.412;13.554;2023-06-22T10:04:51;101405.19;;;26.23;38.73
81509;BME280;70930;52.412;13.554;2023-06-22T10:15:11;101424.13;;;26.45;39.00
81509;BME280;70930;52.412;13.554;2023-06-22T10:25:32;101414.78;;;26.93;38.03
81509;BME280;70930;52.412;13.554;2023-06-22T10:35:52;101417.22;;;26.32;37.17
81509;BME280;70930;52.412;13.554;2023-06-22T10:46:12;101404.06;;;26.66;37.80
81509;BME280;70930;52.412;13.554;2023-06-22T10:56:33;101401.44;;;27.07;37.26
81509;BME280;70930;52.412;13.554;2023-06-22T11:06:54;101381.03;;;27.15;38.15
81509;BME280;70930;52.412;13.554;2023-06-22T11:17:16;101380.22;;;27.65;35.28
81509;BME280;70930;52.412;13.554;2023-06-22T11:27:36;101344.09;;;28.30;35.15
81509;BME280;70930;52.412;13.554;2023-06-22T11:37:57;101347.56;;;29.00;33.47
81509;BME280;70930;52.412;13.554;2023-06-22T11:48:18;101343.19;;;29.04;33.47
81509;BME280;70930;52.412;13.554;2023-06-22T11:58:38;101348.00;;;29.18;33.16
81509;BME280;70930;52.412;13.554;2023-06-22T12:08:59;101342.81;;;29.79;32.21
81509;BME280;70930;52.412;13.554;2023-06-22T12:19:19;101326.38;;;29.50;31.37
81509;BME280;70930;52.412;13.554;2023-06-22T12:29:40;101319.28;;;28.76;32.39
81509;BME280;70930;52.412;13.554;2023-06-22T12:40:00;101309.19;;;29.98;31.63
81509;BME280;70930;52.412;13.554;2023-06-22T12:50:21;101293.50;;;30.89;30.24
81509;BME280;70930;52.412;13.554;2023-06-22T13:00:41;101273.13;;;29.91;31.54
81509;BME280;70930;52.412;13.554;2023-06-22T13:16:30;101252.50;;;29.98;31.93
81509;BME280;70930;52.412;13.554;2023-06-22T13:26:00;101241.53;;;30.41;31.91
81509;BME280;70930;52.412;13.554;2023-06-22T13:35:31;101234.78;;;30.52;33.93
81509;BME280;70930;52.412;13.554;2023-06-22T13:45:01;101220.00;;;30.35;32.50
81509;BME280;70930;52.412;13.554;2023-06-22T13:54:32;101204.66;;;29.72;32.61
81509;BME280;70930;52.412;13.554;2023-06-22T14:04:02;101192.41;;;29.88;32.91
81509;BME280;70930;52.412;13.554;2023-06-22T14:13:33;101176.50;;;30.09;32.63
81509;BME280;70930;52.412;13.554;2023-06-22T14:23:03;101155.78;;;30.41;32.18
81509;BME280;70930;52.412;13.554;2023-06-22T14:32:33;101144.50;;;29.67;32.86
81509;BME280;70930;52.412;13.554;2023-06-22T14:42:04;101144.72;;;29.70;32.90
81509;BME280;70930;52.412;13.554;2023-06-22T14:51:34;101105.84;;;29.49;33.41
81509;BME280;70930;52.412;13.554;2023-06-22T15:01:05;101082.00;;;29.93;33.47
81509;BME280;70930;52.412;13.554;2023-06-22T15:10:38;101070.19;;;29.35;34.40
81509;BME280;70930;52.412;13.554;2023-06-22T15:20:08;101062.78;;;29.60;33.61
81509;BME280;70930;52.412;13.554;2023-06-22T15:29:40;101071.06;;;29.74;34.29
81509;BME280;70930;52.412;13.554;2023-06-22T15:39:11;101048.81;;;29.38;35.01
81509;BME280;70930;52.412;13.554;2023-06-22T15:48:42;101027.72;;;28.95;35.30
81509;BME280;70930;52.412;13.554;2023-06-22T15:58:12;101012.84;;;28.58;35.72
81509;BME280;70930;52.412;13.554;2023-06-22T16:07:43;101017.88;;;28.46;36.57
81509;BME280;70930;52.412;13.554;2023-06-22T16:17:13;101013.66;;;28.30;37.68
81509;BME280;70930;52.412;13.554;2023-06-22T16:26:44;100974.22;;;27.73;39.00
81509;BME280;70930;52.412;13.554;2023-06-22T16:36:17;100964.47;;;28.01;38.84
81509;BME280;70930;52.412;13.554;2023-06-22T16:45:48;100939.53;;;27.78;38.97
81509;BME280;70930;52.412;13.554;2023-06-22T16:55:20;100931.19;;;27.64;39.35
81509;BME280;70930;52.412;13.554;2023-06-22T17:04:52;100935.53;;;27.26;40.10
81509;BME280;70930;52.412;13.554;2023-06-22T17:14:23;100920.63;;;27.08;40.46
81509;BME280;70930;52.412;13.554;2023-06-22T17:23:53;100923.09;;;27.00;40.88
81509;BME280;70930;52.412;13.554;2023-06-22T17:33:25;100927.50;;;26.96;40.91
81509;BME280;70930;52.412;13.554;2023-06-22T17:43:05;100891.88;;;26.82;41.34
81509;BME280;70930;52.412;13.554;2023-06-22T17:52:36;100879.09;;;26.72;41.42
81509;BME280;70930;52.412;13.554;2023-06-22T18:02:07;100855.50;;;26.52;41.49
81509;BME280;70930;52.412;13.554;2023-06-22T18:11:51;100840.34;;;26.20;42.23
81509;BME280;70930;52.412;13.554;2023-06-22T18:21:24;100835.22;;;26.09;42.53
81509;BME280;70930;52.412;13.554;2023-06-22T18:30:54;100827.09;;;25.99;42.75
81509;BME280;70930;52.412;13.554;2023-06-22T18:40:25;100853.78;;;25.86;42.95
81509;BME280;70930;52.412;13.554;2023-06-22T18:50:07;100834.47;;;25.78;43.63
81509;BME280;70930;52.412;13.554;2023-06-22T19:09:15;100751.84;;;25.28;44.86
81509;BME280;70930;52.412;13.554;2023-06-22T19:18:48;100786.09;;;25.29;43.88
81509;BME280;70930;52.412;13.554;2023-06-22T19:28:21;100778.19;;;25.17;44.20
81509;BME280;70930;52.412;13.554;2023-06-22T19:37:51;100782.22;;;24.99;44.37
81509;BME280;70930;52.412;13.554;2023-06-22T19:47:22;100786.84;;;24.93;44.36
81509;BME280;70930;52.412;13.554;2023-06-22T19:56:52;100776.53;;;24.90;44.26
81509;BME280;70930;52.412;13.554;2023-06-22T20:06:22;100708.03;;;24.68;45.49
81509;BME280;70930;52.412;13.554;2023-06-22T20:15:53;100695.53;;;24.52;45.92
81509;BME280;70930;52.412;13.554;2023-06-22T20:25:24;100735.38;;;24.31;46.99
81509;BME280;70930;52.412;13.554;2023-06-22T20:34:55;100875.69;;;23.93;51.29
81509;BME280;70930;52.412;13.554;2023-06-22T20:44:25;100981.03;;;21.63;70.14
81509;BME280;70930;52.412;13.554;2023-06-22T20:53:56;100972.94;;;20.00;76.81
81509;BME280;70930;52.412;13.554;2023-06-22T21:03:26;100934.91;;;19.48;81.14
81509;BME280;70930;52.412;13.554;2023-06-22T21:12:57;100874.66;;;19.19;81.58
81509;BME280;70930;52.412;13.554;2023-06-22T21:22:29;100849.81;;;19.17;80.98
81509;BME280;70930;52.412;13.554;2023-06-22T21:32:01;100883.88;;;19.11;80.95
81509;BME280;70930;52.412;13.554;2023-06-22T21:41:32;100977.78;;;19.50;80.97
81509;BME280;70930;52.412;13.554;2023-06-22T21:51:02;101075.78;;;19.85;80.16
81509;BME280;70930;52.412;13.554;2023-06-22T22:00:33;101160.84;;;19.56;81.02
81509;BME280;70930;52.412;13.554;2023-06-22T22:10:03;101033.63;;;18.87;83.54
81509;BME280;70930;52.412;13.554;2023-06-22T22:19:34;101023.13;;;18.54;84.83
81509;BME280;70930;52.412;13.554;2023-06-22T22:29:04;100915.06;;;18.02;86.29
81509;BME280;70930;52.412;13.554;2023-06-22T22:38:36;100928.00;;;17.87;86.46
81509;BME280;70930;52.412;13.554;2023-06-22T22:48:08;100879.91;;;17.72;86.65
81509;BME280;70930;52.412;13.554;2023-06-22T22:57:39;100849.91;;;17.57;85.59
81509;BME280;70930;52.412;13.554;2023-06-22T23:07:09;100791.06;;;17.30;86.76
81509;BME280;70930;52.412;13.554;2023-06-22T23:16:40;100737.00;;;17.02;87.75
81509;BME280;70930;52.412;13.554;2023-06-22T23:26:10;100695.03;;;16.82;87.41
81509;BME280;70930;52.412;13.554;2023-06-22T23:35:41;100682.66;;;16.81;88.50
81509;BME280;70930;52.412;13.554;2023-06-22T23:45:13;100712.09;;;16.88;87.07
81509;BME280;70930;52.412;13.554;2023-06-22T23:54:45;100717.88;;;16.91;87.53
